createdAt,value
2019-02-25T00:01:11.777Z,-0.15
2019-02-25T00:03:41.332Z,-0.19
2019-02-25T00:06:10.819Z,-0.24
2019-02-25T00:08:40.281Z,-0.18
2019-02-25T00:11:09.869Z,-0.17
2019-02-25T00:13:39.626Z,-0.14
2019-02-25T00:16:09.626Z,-0.14
2019-02-25T00:18:39.092Z,-0.10
2019-02-25T00:21:08.576Z,-0.06
2019-02-25T00:23:38.060Z,-0.03
2019-02-25T00:26:07.536Z,0.00
2019-02-25T00:28:37.011Z,0.00
2019-02-25T00:31:06.494Z,0.02
2019-02-25T00:33:35.951Z,0.03
2019-02-25T00:36:05.428Z,-0.01
2019-02-25T00:38:34.921Z,-0.08
2019-02-25T00:41:04.414Z,-0.12
2019-02-25T00:43:33.899Z,-0.17
2019-02-25T00:46:03.379Z,-0.22
2019-02-25T00:48:33.017Z,-0.21
2019-02-25T00:51:02.491Z,-0.23
2019-02-25T00:53:31.959Z,-0.19
2019-02-25T00:56:01.436Z,-0.20
2019-02-25T00:58:30.899Z,-0.14
2019-02-25T01:01:00.412Z,-0.22
2019-02-25T01:03:30.380Z,-0.20
2019-02-25T01:05:59.980Z,-0.22
2019-02-25T01:08:29.405Z,-0.28
2019-02-25T01:10:58.898Z,-0.35
2019-02-25T01:13:28.353Z,-0.37
2019-02-25T01:15:57.838Z,-0.43
2019-02-25T01:18:27.314Z,-0.48
2019-02-25T01:20:57.103Z,-0.50
2019-02-25T01:23:26.562Z,-0.49
2019-02-25T01:25:56.064Z,-0.51
2019-02-25T01:28:25.529Z,-0.52
2019-02-25T01:30:55.087Z,-0.41
2019-02-25T01:33:24.547Z,-0.38
2019-02-25T01:35:54.040Z,-0.39
2019-02-25T01:38:23.577Z,-0.42
2019-02-25T01:40:53.102Z,-0.46
2019-02-25T01:43:22.612Z,-0.46
2019-02-25T01:45:52.092Z,-0.47
2019-02-25T01:48:21.618Z,-0.52
2019-02-25T01:50:51.068Z,-0.55
2019-02-25T01:53:20.581Z,-0.57
2019-02-25T01:55:50.655Z,-0.61
2019-02-25T01:58:20.248Z,-0.64
2019-02-25T02:00:49.747Z,-0.70
2019-02-25T02:03:19.221Z,-0.73
2019-02-25T02:05:48.867Z,-0.76
2019-02-25T02:08:18.663Z,-0.76
2019-02-25T02:10:48.304Z,-0.68
2019-02-25T02:13:17.931Z,-0.72
2019-02-25T02:15:47.458Z,-0.62
2019-02-25T02:18:17.585Z,-0.64
2019-02-25T02:20:47.233Z,-0.58
2019-02-25T02:23:16.797Z,-0.57
2019-02-25T02:25:46.278Z,-0.59
2019-02-25T02:28:15.758Z,-0.57
2019-02-25T02:30:46.747Z,-0.61
2019-02-25T02:33:16.577Z,-0.62
2019-02-25T02:35:46.109Z,-0.64
2019-02-25T02:38:15.610Z,-0.71
2019-02-25T02:40:45.073Z,-0.75
2019-02-25T02:43:14.550Z,-0.75
2019-02-25T02:45:50.651Z,-0.76
2019-02-25T02:48:29.046Z,-0.73
2019-02-25T02:50:58.776Z,-0.77
2019-02-25T02:53:28.267Z,-0.77
2019-02-25T02:55:57.725Z,-0.79
2019-02-25T02:58:27.208Z,-0.84
2019-02-25T03:00:56.679Z,-0.88
2019-02-25T03:03:26.167Z,-0.94
2019-02-25T03:05:55.680Z,-0.95
2019-02-25T03:08:25.128Z,-0.95
2019-02-25T03:10:54.950Z,-1.00
2019-02-25T03:13:24.428Z,-1.01
2019-02-25T03:15:54.264Z,-1.03
2019-02-25T03:18:23.728Z,-1.06
2019-02-25T03:20:53.187Z,-1.11
2019-02-25T03:23:22.694Z,-1.15
2019-02-25T03:25:52.208Z,-1.16
2019-02-25T03:28:21.688Z,-1.16
2019-02-25T03:30:51.503Z,-1.13
2019-02-25T03:33:20.990Z,-1.16
2019-02-25T03:35:50.450Z,-1.22
2019-02-25T03:38:19.929Z,-1.22
2019-02-25T03:40:49.461Z,-1.25
2019-02-25T03:43:19.325Z,-1.25
2019-02-25T03:45:48.863Z,-1.19
2019-02-25T03:48:18.387Z,-1.17
2019-02-25T03:50:47.851Z,-1.17
2019-02-25T03:53:17.657Z,-1.25
2019-02-25T03:55:47.212Z,-1.29
2019-02-25T03:58:16.672Z,-1.26
2019-02-25T04:00:46.703Z,-1.20
2019-02-25T04:03:16.252Z,-1.16
2019-02-25T04:05:45.880Z,-1.17
2019-02-25T04:08:15.373Z,-1.21
2019-02-25T04:10:44.942Z,-1.22
2019-02-25T04:13:14.748Z,-1.22
2019-02-25T04:15:44.983Z,-1.27
2019-02-25T04:18:14.464Z,-1.28
2019-02-25T04:20:43.921Z,-1.30
2019-02-25T04:23:13.395Z,-1.34
2019-02-25T04:25:42.878Z,-1.32
2019-02-25T04:28:12.688Z,-1.32
2019-02-25T04:30:42.169Z,-1.30
2019-02-25T04:33:11.652Z,-1.33
2019-02-25T04:35:41.133Z,-1.40
2019-02-25T04:38:10.993Z,-1.44
2019-02-25T04:40:40.458Z,-1.44
2019-02-25T04:43:10.353Z,-1.46
2019-02-25T04:45:39.834Z,-1.42
2019-02-25T04:48:09.575Z,-1.39
2019-02-25T04:50:39.040Z,-1.34
2019-02-25T04:53:08.513Z,-1.32
2019-02-25T04:55:37.977Z,-1.24
2019-02-25T04:58:07.882Z,-1.29
2019-02-25T05:00:37.711Z,-1.25
2019-02-25T05:03:09.143Z,-1.28
2019-02-25T05:05:39.069Z,-1.22
2019-02-25T05:08:08.533Z,-1.27
2019-02-25T05:10:38.274Z,-1.30
2019-02-25T05:13:08.623Z,-1.30
2019-02-25T05:15:38.189Z,-1.34
2019-02-25T05:18:07.643Z,-1.39
2019-02-25T05:20:37.334Z,-1.44
2019-02-25T05:23:07.137Z,-1.47
2019-02-25T05:25:36.606Z,-1.48
2019-02-25T05:28:06.096Z,-1.45
2019-02-25T05:30:35.922Z,-1.42
2019-02-25T05:33:06.338Z,-1.39
2019-02-25T05:35:36.016Z,-1.40
2019-02-25T05:38:05.497Z,-1.41
2019-02-25T05:40:34.966Z,-1.43
2019-02-25T05:43:05.033Z,-1.46
2019-02-25T05:45:34.762Z,-1.52
2019-02-25T05:48:04.329Z,-1.56
2019-02-25T05:50:33.779Z,-1.58
2019-02-25T05:53:03.256Z,-1.62
2019-02-25T05:55:32.746Z,-1.64
2019-02-25T05:58:02.218Z,-1.63
2019-02-25T06:00:33.577Z,-1.65
2019-02-25T06:03:04.250Z,-1.62
2019-02-25T06:05:33.734Z,-1.59
2019-02-25T06:08:03.204Z,-1.55
2019-02-25T06:10:32.677Z,-1.48
2019-02-25T06:13:02.177Z,-1.37
2019-02-25T06:15:31.926Z,-1.26
2019-02-25T06:18:01.434Z,-1.19
2019-02-25T06:20:30.920Z,-0.96
2019-02-25T06:23:00.384Z,-0.81
2019-02-25T06:25:29.982Z,-0.60
2019-02-25T06:27:59.423Z,-0.42
2019-02-25T06:30:31.155Z,-0.22
2019-02-25T06:33:01.311Z,0.00
2019-02-25T06:35:31.219Z,0.31
2019-02-25T06:38:00.670Z,0.87
2019-02-25T06:40:30.144Z,1.36
2019-02-25T06:42:59.615Z,1.71
2019-02-25T06:45:36.863Z,2.17
2019-02-25T06:48:06.344Z,2.81
2019-02-25T06:50:35.816Z,3.32
2019-02-25T06:53:05.302Z,4.01
2019-02-25T06:55:34.775Z,4.40
2019-02-25T06:58:04.549Z,4.50
2019-02-25T07:00:34.424Z,5.03
2019-02-25T07:03:04.423Z,4.79
2019-02-25T07:05:50.307Z,4.98
2019-02-25T07:08:21.416Z,5.32
2019-02-25T07:10:52.633Z,5.31
2019-02-25T07:13:23.750Z,5.84
2019-02-25T07:15:54.859Z,5.51
2019-02-25T07:18:42.390Z,6.21
2019-02-25T07:21:25.294Z,6.15
2019-02-25T07:24:14.588Z,6.40
2019-02-25T07:27:02.027Z,7.66
2019-02-25T07:29:33.153Z,8.38
2019-02-25T07:32:04.254Z,8.31
2019-02-25T07:34:41.170Z,7.49
2019-02-25T07:37:18.238Z,7.50
2019-02-25T07:39:58.026Z,7.26
2019-02-25T07:42:45.360Z,8.11
2019-02-25T07:45:33.667Z,8.57
2019-02-25T07:48:05.016Z,7.18
2019-02-25T07:50:47.207Z,7.22
2019-02-25T07:53:17.839Z,7.75
2019-02-25T07:56:02.077Z,8.15
2019-02-25T07:58:27.881Z,8.43
2019-02-25T08:01:27.678Z,8.02
2019-02-25T08:04:02.484Z,7.74
2019-02-25T08:06:37.976Z,7.47
2019-02-25T08:09:29.394Z,8.04
2019-02-25T08:12:37.097Z,8.65
2019-02-25T08:15:20.784Z,9.84
2019-02-25T08:18:14.869Z,10.86
2019-02-25T08:21:15.977Z,11.45
2019-02-25T08:24:04.311Z,11.20
2019-02-25T08:26:45.428Z,11.88
2019-02-25T08:29:30.665Z,12.64
2019-02-25T08:32:28.197Z,12.79
2019-02-25T08:35:19.231Z,13.70
2019-02-25T08:38:03.882Z,14.52
2019-02-25T08:41:04.862Z,13.14
2019-02-25T08:43:47.576Z,14.55
2019-02-25T08:46:29.570Z,14.55
2019-02-25T08:49:06.466Z,15.90
2019-02-25T08:51:45.978Z,15.42
2019-02-25T08:54:21.729Z,14.78
2019-02-25T08:56:54.218Z,14.79
2019-02-25T08:59:41.672Z,13.88
2019-02-25T09:02:10.353Z,14.44
2019-02-25T09:04:58.830Z,15.48
2019-02-25T09:07:42.580Z,16.43
2019-02-25T09:13:37.209Z,17.45
2019-02-25T09:16:15.836Z,17.84
2019-02-25T09:18:48.553Z,18.03
2019-02-25T09:21:33.688Z,18.17
2019-02-25T09:24:06.339Z,19.03
2019-02-25T09:26:44.771Z,19.90
2019-02-25T09:29:35.732Z,19.96
2019-02-25T09:32:13.082Z,20.35
2019-02-25T09:34:51.001Z,20.47
2019-02-25T09:37:31.177Z,21.82
2019-02-25T09:40:06.442Z,22.01
2019-02-25T09:42:45.092Z,22.47
2019-02-25T09:45:21.257Z,22.71
2019-02-25T09:48:03.579Z,22.44
2019-02-25T09:50:38.562Z,23.05
2019-02-25T09:53:12.934Z,23.19
2019-02-25T09:56:12.827Z,23.16
2019-02-25T09:59:05.677Z,24.27
2019-02-25T10:01:38.754Z,24.81
2019-02-25T10:04:15.916Z,24.77
2019-02-25T10:06:48.304Z,24.37
2019-02-25T10:09:29.772Z,24.90
2019-02-25T10:12:10.650Z,24.87
2019-02-25T10:14:46.287Z,24.65
2019-02-25T10:17:38.040Z,24.72
2019-02-25T10:20:16.939Z,24.07
2019-02-25T10:22:58.802Z,24.87
2019-02-25T10:25:38.829Z,25.01
2019-02-25T10:28:18.334Z,24.68
2019-02-25T10:30:53.300Z,23.76
2019-02-25T10:33:27.807Z,23.57
2019-02-25T10:36:09.631Z,24.20
2019-02-25T10:38:45.608Z,24.43
2019-02-25T10:41:27.862Z,23.83
2019-02-25T10:43:55.286Z,23.46
2019-02-25T10:46:39.033Z,24.08
2019-02-25T10:49:17.307Z,24.57
2019-02-25T10:51:56.171Z,25.23
2019-02-25T10:54:28.506Z,25.09
2019-02-25T10:57:13.524Z,24.17
2019-02-25T10:59:53.013Z,23.97
2019-02-25T11:02:30.989Z,24.66
2019-02-25T11:04:59.761Z,23.98
2019-02-25T11:07:35.450Z,23.74
2019-02-25T11:10:30.260Z,24.07
2019-02-25T11:13:09.895Z,23.27
2019-02-25T11:15:55.199Z,23.52
2019-02-25T11:18:30.540Z,22.95
2019-02-25T11:21:17.070Z,23.56
2019-02-25T11:23:54.048Z,23.20
2019-02-25T11:26:35.188Z,23.53
2019-02-25T11:29:18.811Z,23.79
2019-02-25T11:32:09.439Z,24.32
2019-02-25T11:34:57.735Z,24.00
2019-02-25T11:37:41.239Z,24.52
2019-02-25T11:40:19.802Z,25.31
2019-02-25T11:42:58.180Z,25.75
2019-02-25T11:45:39.482Z,24.98
2019-02-25T11:48:10.010Z,24.37
2019-02-25T11:50:44.718Z,24.14
2019-02-25T11:53:13.830Z,24.62
2019-02-25T11:55:51.906Z,24.01
2019-02-25T11:58:27.500Z,23.74
2019-02-25T12:01:12.272Z,22.68
2019-02-25T12:03:48.842Z,22.45
2019-02-25T12:06:28.567Z,21.91
2019-02-25T12:09:07.330Z,21.60
2019-02-25T12:11:44.112Z,21.95
2019-02-25T12:14:31.169Z,21.92
2019-02-25T12:17:01.935Z,22.32
2019-02-25T12:19:34.174Z,22.07
2019-02-25T12:22:10.142Z,22.25
2019-02-25T12:24:44.891Z,22.43
2019-02-25T12:27:25.902Z,22.42
2019-02-25T12:30:02.717Z,21.93
2019-02-25T12:32:43.730Z,22.31
2019-02-25T12:35:22.670Z,22.22
2019-02-25T12:38:05.062Z,22.17
2019-02-25T12:40:59.922Z,22.46
2019-02-25T12:43:32.041Z,22.00
2019-02-25T12:46:07.996Z,22.15
2019-02-25T12:48:50.226Z,21.87
2019-02-25T12:51:40.042Z,21.86
2019-02-25T12:54:18.453Z,22.11
2019-02-25T12:57:08.325Z,22.33
2019-02-25T12:59:50.073Z,22.69
2019-02-25T13:02:22.806Z,22.31
2019-02-25T13:05:05.896Z,21.16
2019-02-25T13:07:42.750Z,21.28
2019-02-25T13:10:19.064Z,20.75
2019-02-25T13:12:53.633Z,20.65
2019-02-25T13:15:26.358Z,20.73
2019-02-25T13:18:00.201Z,20.90
2019-02-25T13:20:59.610Z,20.64
2019-02-25T13:23:41.712Z,21.05
2019-02-25T13:26:07.334Z,21.23
2019-02-25T13:28:46.795Z,20.81
2019-02-25T13:31:20.832Z,21.29
2019-02-25T13:34:06.253Z,21.06
2019-02-25T13:36:45.803Z,21.19
2019-02-25T13:39:18.534Z,20.71
2019-02-25T13:41:54.895Z,20.43
2019-02-25T13:44:26.545Z,19.36
2019-02-25T13:47:02.160Z,19.91
2019-02-25T13:49:37.474Z,20.18
2019-02-25T13:52:14.142Z,20.30
2019-02-25T13:54:46.499Z,19.64
2019-02-25T13:57:22.550Z,19.81
2019-02-25T13:59:56.668Z,20.02
2019-02-25T14:02:31.892Z,19.68
2019-02-25T14:05:09.477Z,19.37
2019-02-25T14:07:43.718Z,18.89
2019-02-25T14:10:24.895Z,19.40
2019-02-25T14:13:09.741Z,19.93
2019-02-25T14:15:59.562Z,20.07
2019-02-25T14:18:39.477Z,19.58
2019-02-25T14:21:17.591Z,19.18
2019-02-25T14:24:05.472Z,18.95
2019-02-25T14:26:49.003Z,18.96
2019-02-25T14:29:27.561Z,18.58
2019-02-25T14:32:10.937Z,18.49
2019-02-25T14:34:46.011Z,18.06
2019-02-25T14:37:26.869Z,18.24
2019-02-25T14:40:00.689Z,18.53
2019-02-25T14:42:35.910Z,18.89
2019-02-25T14:45:19.672Z,18.66
2019-02-25T14:48:02.593Z,18.54
2019-02-25T14:50:33.154Z,18.49
2019-02-25T14:53:11.411Z,18.43
2019-02-25T14:55:58.501Z,18.28
2019-02-25T14:58:48.865Z,18.24
2019-02-25T15:01:23.314Z,18.22
2019-02-25T15:03:51.474Z,17.66
2019-02-25T15:06:23.731Z,17.44
2019-02-25T15:09:01.788Z,17.40
2019-02-25T15:11:28.863Z,17.49
2019-02-25T15:16:56.438Z,17.29
2019-02-25T15:19:32.098Z,17.29
2019-02-25T15:22:09.042Z,16.72
2019-02-25T15:24:39.426Z,16.54
2019-02-25T15:27:11.021Z,16.02
2019-02-25T15:29:49.097Z,15.69
2019-02-25T15:32:26.016Z,15.26
2019-02-25T15:35:01.457Z,14.98
2019-02-25T15:37:34.083Z,14.87
2019-02-25T15:40:09.734Z,14.87
2019-02-25T15:42:48.530Z,14.53
2019-02-25T15:45:27.019Z,14.31
2019-02-25T15:48:14.593Z,13.97
2019-02-25T15:50:48.485Z,13.81
2019-02-25T15:53:37.157Z,13.70
2019-02-25T15:56:13.624Z,13.53
2019-02-25T15:58:49.404Z,13.37
2019-02-25T16:01:22.509Z,13.13
2019-02-25T16:04:02.933Z,13.03
2019-02-25T16:06:53.750Z,12.99
2019-02-25T16:12:09.780Z,12.74
2019-02-25T16:14:56.738Z,12.51
2019-02-25T16:17:35.180Z,12.31
2019-02-25T16:20:17.508Z,12.14
2019-02-25T16:22:48.673Z,12.04
2019-02-25T16:25:27.093Z,11.90
2019-02-25T16:28:00.926Z,11.77
2019-02-25T16:30:41.800Z,11.59
2019-02-25T16:33:07.824Z,11.45
2019-02-25T16:35:43.529Z,11.24
2019-02-25T16:38:21.122Z,11.06
2019-02-25T16:41:03.268Z,10.89
2019-02-25T16:43:44.054Z,10.67
2019-02-25T16:46:25.477Z,10.50
2019-02-25T16:48:57.398Z,10.30
2019-02-25T16:51:37.604Z,10.14
2019-02-25T16:54:18.167Z,9.97
2019-02-25T16:56:52.026Z,9.79
2019-02-25T16:59:20.713Z,9.65
2019-02-25T17:01:51.817Z,9.57
2019-02-25T17:04:31.965Z,9.48
2019-02-25T17:07:11.793Z,9.35
2019-02-25T17:09:52.734Z,9.25
2019-02-25T17:12:25.378Z,9.12
2019-02-25T17:15:12.040Z,8.98
2019-02-25T17:17:49.085Z,8.87
2019-02-25T17:20:28.109Z,8.77
2019-02-25T17:23:09.516Z,8.60
2019-02-25T17:25:47.116Z,8.39
2019-02-25T17:28:22.669Z,8.24
2019-02-25T17:30:58.642Z,8.10
2019-02-25T17:33:35.031Z,7.95
2019-02-25T17:36:10.209Z,7.82
2019-02-25T17:38:43.206Z,7.69
2019-02-25T17:41:16.492Z,7.60
2019-02-25T17:43:59.309Z,7.51
2019-02-25T17:46:34.955Z,7.37
2019-02-25T17:49:18.916Z,7.29
2019-02-25T17:51:51.126Z,7.20
2019-02-25T17:54:25.026Z,7.11
2019-02-25T17:56:58.985Z,7.07
2019-02-25T17:59:32.524Z,6.97
2019-02-25T18:02:08.344Z,7.06
2019-02-25T18:04:47.129Z,6.97
2019-02-25T18:07:24.150Z,6.89
2019-02-25T18:09:58.922Z,6.72
2019-02-25T18:12:33.781Z,6.54
2019-02-25T18:15:05.206Z,6.42
2019-02-25T18:17:46.745Z,6.32
2019-02-25T18:20:17.718Z,6.18
2019-02-25T18:22:56.242Z,6.09
2019-02-25T18:25:29.597Z,6.05
2019-02-25T18:28:08.380Z,5.99
2019-02-25T18:30:41.507Z,6.00
2019-02-25T18:33:17.467Z,5.97
2019-02-25T18:35:54.653Z,5.93
2019-02-25T18:38:31.708Z,5.97
2019-02-25T18:41:04.723Z,5.93
2019-02-25T18:43:44.904Z,5.88
2019-02-25T18:46:21.310Z,5.92
2019-02-25T18:49:04.718Z,5.88
2019-02-25T18:51:39.691Z,5.88
2019-02-25T18:54:16.928Z,5.87
2019-02-25T18:56:50.016Z,5.80
2019-02-25T18:59:23.091Z,5.77
2019-02-25T19:01:55.743Z,5.74
2019-02-25T19:04:30.803Z,5.70
2019-02-25T19:07:06.175Z,5.67
2019-02-25T19:09:35.961Z,5.71
2019-02-25T19:12:05.434Z,5.76
2019-02-25T19:14:34.896Z,5.74
2019-02-25T19:17:06.392Z,5.73
2019-02-25T19:19:38.185Z,5.68
2019-02-25T19:22:08.257Z,5.65
2019-02-25T19:24:41.952Z,5.62
2019-02-25T19:27:10.542Z,5.63
2019-02-25T19:29:40.579Z,5.71
2019-02-25T19:32:10.388Z,5.82
2019-02-25T19:34:39.966Z,5.91
2019-02-25T19:37:10.413Z,5.96
2019-02-25T19:39:41.469Z,6.08
2019-02-25T19:42:15.402Z,6.17
2019-02-25T19:44:43.739Z,6.26
2019-02-25T19:47:14.245Z,6.26
2019-02-25T19:49:45.889Z,6.18
2019-02-25T19:52:16.768Z,6.19
2019-02-25T19:54:48.804Z,6.15
2019-02-25T19:57:18.783Z,6.13
2019-02-25T19:59:50.590Z,6.05
2019-02-25T20:02:20.206Z,6.01
2019-02-25T20:04:51.936Z,5.97
2019-02-25T20:07:25.686Z,5.84
2019-02-25T20:09:52.246Z,5.71
2019-02-25T20:12:22.031Z,5.58
2019-02-25T20:14:51.506Z,5.49
2019-02-25T20:17:21.614Z,5.40
2019-02-25T20:19:52.207Z,5.32
2019-02-25T20:22:21.690Z,5.24
2019-02-25T20:24:54.690Z,5.15
2019-02-25T20:27:22.727Z,5.10
2019-02-25T20:29:52.486Z,5.04
2019-02-25T20:32:22.267Z,5.05
2019-02-25T20:34:52.865Z,5.13
2019-02-25T20:37:24.980Z,5.08
2019-02-25T20:39:54.472Z,5.22
2019-02-25T20:42:25.832Z,5.18
2019-02-25T20:44:57.379Z,5.13
2019-02-25T20:47:28.520Z,5.01
2019-02-25T20:49:57.925Z,4.87
2019-02-25T20:52:28.416Z,4.77
2019-02-25T20:54:58.161Z,4.71
2019-02-25T20:57:29.518Z,4.62
2019-02-25T20:59:58.803Z,4.71
2019-02-25T21:02:28.278Z,4.70
2019-02-25T21:04:58.250Z,4.64
2019-02-25T21:07:29.600Z,4.55
2019-02-25T21:10:00.783Z,4.46
2019-02-25T21:12:30.172Z,4.38
2019-02-25T21:14:59.947Z,4.33
2019-02-25T21:17:30.862Z,4.29
2019-02-25T21:20:02.742Z,4.27
2019-02-25T21:22:33.825Z,4.25
2019-02-25T21:25:04.757Z,4.18
2019-02-25T21:27:34.734Z,4.11
2019-02-25T21:30:11.089Z,4.04
2019-02-25T21:32:43.233Z,4.01
2019-02-25T21:35:13.859Z,4.00
2019-02-25T21:37:46.111Z,3.96
2019-02-25T21:40:17.273Z,3.99
2019-02-25T21:42:48.806Z,3.97
2019-02-25T21:45:20.280Z,3.95
2019-02-25T21:47:52.203Z,3.93
2019-02-25T21:50:21.673Z,3.91
2019-02-25T21:52:51.153Z,3.91
2019-02-25T21:55:20.646Z,3.94
2019-02-25T21:57:50.101Z,3.90
2019-02-25T22:00:21.330Z,3.86
2019-02-25T22:02:52.721Z,3.86
2019-02-25T22:05:23.694Z,3.82
2019-02-25T22:07:55.326Z,3.79
2019-02-25T22:10:24.824Z,3.71
2019-02-25T22:12:54.314Z,3.67
2019-02-25T22:15:23.783Z,3.65
2019-02-25T22:17:53.652Z,3.64
2019-02-25T22:20:24.997Z,3.71
2019-02-25T22:22:58.716Z,3.66
2019-02-25T22:25:26.096Z,3.65
2019-02-25T22:27:55.559Z,3.65
2019-02-25T22:30:25.107Z,3.69
2019-02-25T22:32:54.584Z,3.78
2019-02-25T22:35:24.072Z,3.72
2019-02-25T22:37:55.456Z,3.64
2019-02-25T22:40:24.791Z,3.62
2019-02-25T22:42:54.932Z,3.58
2019-02-25T22:45:25.842Z,3.52
2019-02-25T22:47:55.317Z,3.49
2019-02-25T22:50:24.797Z,3.49
2019-02-25T22:52:58.278Z,3.48
2019-02-25T22:55:25.445Z,3.48
2019-02-25T22:57:55.262Z,3.50
2019-02-25T23:00:36.839Z,3.57
2019-02-25T23:03:06.861Z,3.77
2019-02-25T23:05:39.067Z,4.09
2019-02-25T23:08:10.967Z,4.32
2019-02-25T23:10:41.973Z,4.44
2019-02-25T23:13:10.410Z,4.51
2019-02-25T23:15:42.040Z,4.55
2019-02-25T23:18:13.879Z,4.63
2019-02-25T23:20:42.257Z,4.65
2019-02-25T23:23:11.782Z,4.62
2019-02-25T23:25:41.479Z,4.60
2019-02-25T23:28:10.991Z,4.58
2019-02-25T23:30:42.284Z,4.59
2019-02-25T23:33:14.332Z,4.55
2019-02-25T23:35:46.595Z,4.46
2019-02-25T23:38:14.746Z,4.44
2019-02-25T23:40:45.128Z,4.43
2019-02-25T23:43:16.817Z,4.28
2019-02-25T23:45:46.719Z,4.12
2019-02-25T23:48:16.351Z,4.00
2019-02-25T23:50:45.834Z,3.88
2019-02-25T23:53:15.299Z,3.78
2019-02-25T23:55:47.289Z,3.67
2019-02-25T23:58:17.304Z,3.60
